createdAt,value
2022-10-10T00:00:14.418Z,8.08
2022-10-10T00:02:43.806Z,8.11
2022-10-10T00:05:13.168Z,8.11
2022-10-10T00:07:42.553Z,8.11
2022-10-10T00:10:12.123Z,8.15
2022-10-10T00:12:41.665Z,8.16
2022-10-10T00:15:15.057Z,8.18
2022-10-10T00:17:44.867Z,8.20
2022-10-10T00:20:17.078Z,8.21
2022-10-10T00:22:46.584Z,8.22
2022-10-10T00:25:16.602Z,8.23
2022-10-10T00:27:45.997Z,8.27
2022-10-10T00:30:19.451Z,8.29
2022-10-10T00:32:49.219Z,8.27
2022-10-10T00:35:20.281Z,8.28
2022-10-10T00:37:49.638Z,8.30
2022-10-10T00:40:19.120Z,8.32
2022-10-10T00:42:49.209Z,8.33
2022-10-10T00:45:34.368Z,8.35
2022-10-10T00:48:09.670Z,8.37
2022-10-10T00:50:45.962Z,8.40
2022-10-10T00:53:18.589Z,8.39
2022-10-10T00:55:48.552Z,8.41
2022-10-10T00:58:20.041Z,8.42
2022-10-10T01:00:52.433Z,8.42
2022-10-10T01:03:22.581Z,8.42
2022-10-10T01:05:52.465Z,8.43
2022-10-10T01:08:23.217Z,8.46
2022-10-10T01:11:13.762Z,8.47
2022-10-10T01:13:56.656Z,8.51
2022-10-10T01:16:37.268Z,8.53
2022-10-10T01:19:48.456Z,8.55
2022-10-10T01:22:34.129Z,8.59
2022-10-10T01:25:24.453Z,8.62
2022-10-10T01:28:01.915Z,8.63
2022-10-10T01:30:34.298Z,8.65
2022-10-10T01:33:14.453Z,8.67
2022-10-10T01:35:52.467Z,8.68
2022-10-10T01:38:31.831Z,8.70
2022-10-10T01:41:10.453Z,8.71
2022-10-10T01:43:41.782Z,8.72
2022-10-10T01:46:20.178Z,8.72
2022-10-10T01:48:52.477Z,8.82
2022-10-10T01:52:17.108Z,8.90
2022-10-10T01:55:25.256Z,8.97
2022-10-10T01:58:29.999Z,9.03
2022-10-10T02:01:10.915Z,9.05
2022-10-10T02:03:48.638Z,9.14
2022-10-10T02:06:32.820Z,9.17
2022-10-10T02:09:13.363Z,9.23
2022-10-10T02:12:27.047Z,9.29
2022-10-10T02:15:10.709Z,9.31
2022-10-10T02:17:43.449Z,9.32
2022-10-10T02:20:24.221Z,9.32
2022-10-10T02:22:57.384Z,9.30
2022-10-10T02:25:31.215Z,9.34
2022-10-10T02:28:12.369Z,9.34
2022-10-10T02:31:30.205Z,9.33
2022-10-10T02:34:10.247Z,9.43
2022-10-10T02:37:02.734Z,9.45
2022-10-10T02:39:38.094Z,9.46
2022-10-10T02:42:13.701Z,9.43
2022-10-10T02:44:44.334Z,9.42
2022-10-10T02:47:14.279Z,9.41
2022-10-10T02:49:44.588Z,9.51
2022-10-10T02:52:17.861Z,9.50
2022-10-10T02:54:47.389Z,9.48
2022-10-10T02:57:16.923Z,9.50
2022-10-10T02:59:46.438Z,9.49
2022-10-10T03:02:15.998Z,9.53
2022-10-10T03:04:45.752Z,9.54
2022-10-10T03:07:16.662Z,9.50
2022-10-10T03:09:46.019Z,9.55
2022-10-10T03:12:15.626Z,9.55
2022-10-10T03:14:45.145Z,9.51
2022-10-10T03:17:14.691Z,9.48
2022-10-10T03:19:44.090Z,9.45
2022-10-10T03:22:13.600Z,9.44
2022-10-10T03:24:44.436Z,9.47
2022-10-10T03:27:14.113Z,9.47
2022-10-10T03:29:43.473Z,9.47
2022-10-10T03:32:12.941Z,9.45
2022-10-10T03:34:42.383Z,9.45
2022-10-10T03:37:11.824Z,9.40
2022-10-10T03:39:41.257Z,9.38
2022-10-10T03:42:11.977Z,9.43
2022-10-10T03:44:41.424Z,9.37
2022-10-10T03:47:10.765Z,9.36
2022-10-10T03:49:40.568Z,9.34
2022-10-10T03:52:10.017Z,9.32
2022-10-10T03:54:39.470Z,9.32
2022-10-10T03:57:08.860Z,9.35
2022-10-10T03:59:39.594Z,9.36
2022-10-10T04:02:08.981Z,9.39
2022-10-10T04:04:38.488Z,9.34
2022-10-10T04:07:08.042Z,9.39
2022-10-10T04:09:37.520Z,9.33
2022-10-10T04:12:07.219Z,9.35
2022-10-10T04:14:36.618Z,9.30
2022-10-10T04:17:07.349Z,9.31
2022-10-10T04:19:36.700Z,9.30
2022-10-10T04:22:10.808Z,9.33
2022-10-10T04:24:40.542Z,9.33
2022-10-10T04:27:10.339Z,9.29
2022-10-10T04:29:39.720Z,9.29
2022-10-10T04:32:10.466Z,9.28
2022-10-10T04:34:40.085Z,9.23
2022-10-10T04:37:09.803Z,9.23
2022-10-10T04:39:39.253Z,9.24
2022-10-10T04:42:08.691Z,9.22
2022-10-10T04:44:38.071Z,9.25
2022-10-10T04:47:08.850Z,9.22
2022-10-10T04:49:38.214Z,9.21
2022-10-10T04:52:07.565Z,9.19
2022-10-10T04:54:37.100Z,9.16
2022-10-10T04:57:06.917Z,9.18
2022-10-10T04:59:36.366Z,9.15
2022-10-10T05:02:05.876Z,9.16
2022-10-10T05:04:36.664Z,9.17
2022-10-10T05:07:06.062Z,9.17
2022-10-10T05:09:35.804Z,9.18
2022-10-10T05:12:05.800Z,9.17
2022-10-10T05:14:35.265Z,9.18
2022-10-10T05:17:04.940Z,9.18
2022-10-10T05:19:35.955Z,9.18
2022-10-10T05:22:07.527Z,9.17
2022-10-10T05:24:37.236Z,9.19
2022-10-10T05:27:07.199Z,9.19
2022-10-10T05:29:36.603Z,9.20
2022-10-10T05:32:10.061Z,9.21
2022-10-10T05:34:42.050Z,9.23
2022-10-10T05:37:12.270Z,9.21
2022-10-10T05:39:43.472Z,9.22
2022-10-10T05:42:22.176Z,9.21
2022-10-10T05:44:51.735Z,9.24
2022-10-10T05:47:25.408Z,9.22
2022-10-10T05:49:58.286Z,9.22
2022-10-10T05:52:29.113Z,9.23
2022-10-10T05:55:44.541Z,9.24
2022-10-10T05:58:14.701Z,9.25
2022-10-10T06:00:46.451Z,9.26
2022-10-10T06:03:17.503Z,9.24
2022-10-10T06:05:52.440Z,9.22
2022-10-10T06:08:21.912Z,9.20
2022-10-10T06:10:51.501Z,9.18
2022-10-10T06:13:24.457Z,9.16
2022-10-10T06:15:54.984Z,9.15
2022-10-10T06:18:24.285Z,9.16
2022-10-10T06:20:55.173Z,9.16
2022-10-10T06:23:24.745Z,9.16
2022-10-10T06:25:54.149Z,9.17
2022-10-10T06:28:23.950Z,9.20
2022-10-10T06:30:53.804Z,9.22
2022-10-10T06:33:23.219Z,9.24
2022-10-10T06:35:54.459Z,9.25
2022-10-10T06:38:24.834Z,9.29
2022-10-10T06:40:58.502Z,9.30
2022-10-10T06:43:30.045Z,9.36
2022-10-10T06:46:00.147Z,9.41
2022-10-10T06:48:31.327Z,9.45
2022-10-10T06:51:05.657Z,9.49
2022-10-10T06:53:36.013Z,9.52
2022-10-10T06:56:05.801Z,9.56
2022-10-10T06:58:35.534Z,9.62
2022-10-10T07:01:06.544Z,9.66
2022-10-10T07:03:36.012Z,9.71
2022-10-10T07:06:12.578Z,9.76
2022-10-10T07:08:43.204Z,9.81
2022-10-10T07:11:13.544Z,9.89
2022-10-10T07:13:43.079Z,9.92
2022-10-10T07:16:12.731Z,10.00
2022-10-10T07:18:42.214Z,10.06
2022-10-10T07:21:13.037Z,10.12
2022-10-10T07:23:42.562Z,10.19
2022-10-10T07:26:15.153Z,10.27
2022-10-10T07:28:44.690Z,10.34
2022-10-10T07:31:14.156Z,10.41
2022-10-10T07:33:50.174Z,10.48
2022-10-10T07:36:21.682Z,10.59
2022-10-10T07:38:53.165Z,10.62
2022-10-10T07:41:23.129Z,10.67
2022-10-10T07:43:56.627Z,10.74
2022-10-10T07:46:26.085Z,10.79
2022-10-10T07:48:56.681Z,10.88
2022-10-10T07:51:27.598Z,10.96
2022-10-10T07:53:57.129Z,11.05
2022-10-10T07:56:27.045Z,11.13
2022-10-10T07:58:56.502Z,11.23
2022-10-10T08:01:26.051Z,11.33
2022-10-10T08:03:57.900Z,11.36
2022-10-10T08:06:28.869Z,11.46
2022-10-10T08:08:58.255Z,11.57
2022-10-10T08:11:27.746Z,11.66
2022-10-10T08:13:57.116Z,11.74
2022-10-10T08:16:26.758Z,11.80
2022-10-10T08:18:56.197Z,11.90
2022-10-10T08:21:25.714Z,12.00
2022-10-10T08:23:57.052Z,12.09
2022-10-10T08:26:26.537Z,12.22
2022-10-10T08:28:56.162Z,12.29
2022-10-10T08:31:25.742Z,12.37
2022-10-10T08:33:58.178Z,12.48
2022-10-10T08:36:27.889Z,12.59
2022-10-10T08:39:00.957Z,12.68
2022-10-10T08:41:40.429Z,12.76
2022-10-10T08:44:22.639Z,12.85
2022-10-10T08:46:57.885Z,12.96
2022-10-10T08:49:36.117Z,13.08
2022-10-10T08:52:15.263Z,13.23
2022-10-10T08:54:48.058Z,13.32
2022-10-10T08:57:27.378Z,13.46
2022-10-10T09:00:04.790Z,13.65
2022-10-10T09:02:56.319Z,13.68
2022-10-10T09:05:47.391Z,13.79
2022-10-10T09:08:46.594Z,13.93
2022-10-10T09:11:39.743Z,14.09
2022-10-10T09:14:35.235Z,14.21
2022-10-10T09:17:20.394Z,14.41
2022-10-10T09:20:08.610Z,14.57
2022-10-10T09:22:53.930Z,14.64
2022-10-10T09:25:29.154Z,14.77
2022-10-10T09:28:09.727Z,14.82
2022-10-10T09:30:48.025Z,14.96
2022-10-10T09:33:29.354Z,15.10
2022-10-10T09:36:00.503Z,15.24
2022-10-10T09:38:39.075Z,15.39
2022-10-10T09:41:18.788Z,15.48
2022-10-10T09:43:55.028Z,15.59
2022-10-10T09:46:24.909Z,15.74
2022-10-10T09:48:55.965Z,15.82
2022-10-10T09:51:25.558Z,15.97
2022-10-10T09:53:54.990Z,15.99
2022-10-10T09:56:29.107Z,16.19
2022-10-10T09:59:00.131Z,16.22
2022-10-10T10:01:33.417Z,16.24
2022-10-10T10:04:31.403Z,16.38
2022-10-10T10:07:19.964Z,16.58
2022-10-10T10:09:52.460Z,16.64
2022-10-10T10:12:26.895Z,16.73
2022-10-10T10:15:04.774Z,16.82
2022-10-10T10:17:34.563Z,16.92
2022-10-10T10:20:08.778Z,17.05
2022-10-10T10:22:40.939Z,17.12
2022-10-10T10:25:32.755Z,17.15
2022-10-10T10:28:23.363Z,17.21
2022-10-10T10:31:00.852Z,17.24
2022-10-10T10:33:46.567Z,17.38
2022-10-10T10:36:38.537Z,17.42
2022-10-10T10:39:30.210Z,17.45
2022-10-10T10:42:16.243Z,17.54
2022-10-10T10:44:53.770Z,17.72
2022-10-10T10:47:43.231Z,17.92
2022-10-10T10:50:38.387Z,18.10
2022-10-10T10:53:24.901Z,18.21
2022-10-10T10:56:14.689Z,18.34
2022-10-10T10:59:41.815Z,18.45
2022-10-10T11:02:26.520Z,18.53
2022-10-10T11:05:42.152Z,18.59
2022-10-10T11:08:48.968Z,18.59
2022-10-10T11:11:42.575Z,18.62
2022-10-10T11:14:38.317Z,18.57
2022-10-10T11:17:19.583Z,18.51
2022-10-10T11:19:57.951Z,18.47
2022-10-10T11:22:36.293Z,18.46
2022-10-10T11:25:16.663Z,18.45
2022-10-10T11:27:54.614Z,18.50
2022-10-10T11:30:26.731Z,18.53
2022-10-10T11:33:05.403Z,18.59
2022-10-10T11:35:44.722Z,18.65
2022-10-10T11:38:28.303Z,18.70
2022-10-10T11:41:02.906Z,18.74
2022-10-10T11:43:45.198Z,18.84
2022-10-10T11:46:29.375Z,18.93
2022-10-10T11:49:09.894Z,19.04
2022-10-10T11:52:21.498Z,19.20
2022-10-10T11:55:04.806Z,19.22
2022-10-10T11:57:44.478Z,19.29
2022-10-10T12:00:17.684Z,19.48
2022-10-10T12:02:48.782Z,19.58
2022-10-10T12:05:24.501Z,19.52
2022-10-10T12:08:17.967Z,19.55
2022-10-10T12:10:58.064Z,19.63
2022-10-10T12:13:35.179Z,19.68
2022-10-10T12:16:09.455Z,19.64
2022-10-10T12:18:46.901Z,19.63
2022-10-10T12:21:20.708Z,19.52
2022-10-10T12:24:01.689Z,19.43
2022-10-10T12:27:44.443Z,19.35
2022-10-10T12:30:24.758Z,19.25
2022-10-10T12:32:55.281Z,19.20
2022-10-10T12:35:41.719Z,19.15
2022-10-10T12:38:24.333Z,19.08
2022-10-10T12:41:15.908Z,19.05
2022-10-10T12:44:23.086Z,19.03
2022-10-10T12:47:52.656Z,18.94
2022-10-10T12:50:27.778Z,18.96
2022-10-10T12:53:00.853Z,18.92
2022-10-10T12:55:34.082Z,18.86
2022-10-10T12:58:10.472Z,18.81
2022-10-10T13:00:48.846Z,18.76
2022-10-10T13:03:25.570Z,18.71
2022-10-10T13:05:57.437Z,18.73
2022-10-10T13:08:30.243Z,18.75
2022-10-10T13:11:09.615Z,18.75
2022-10-10T13:13:40.789Z,18.78
2022-10-10T13:16:18.836Z,18.77
2022-10-10T13:18:52.910Z,18.72
2022-10-10T13:21:25.875Z,18.75
2022-10-10T13:24:03.757Z,18.75
2022-10-10T13:26:39.506Z,18.74
2022-10-10T13:29:24.401Z,18.74
2022-10-10T13:32:00.191Z,18.73
2022-10-10T13:34:34.601Z,18.75
2022-10-10T13:37:06.569Z,18.85
2022-10-10T13:39:39.814Z,18.78
2022-10-10T13:42:30.193Z,18.74
2022-10-10T13:45:02.082Z,18.74
2022-10-10T13:47:54.298Z,18.78
2022-10-10T13:51:06.145Z,18.83
2022-10-10T13:53:53.261Z,18.92
2022-10-10T13:56:28.217Z,19.03
2022-10-10T13:59:07.115Z,19.07
2022-10-10T14:01:40.828Z,19.07
2022-10-10T14:04:23.742Z,19.09
2022-10-10T14:07:05.071Z,19.16
2022-10-10T14:09:40.831Z,19.26
2022-10-10T14:12:26.249Z,19.24
2022-10-10T14:14:58.759Z,19.16
2022-10-10T14:17:30.312Z,19.15
2022-10-10T14:20:01.253Z,19.14
2022-10-10T14:22:30.739Z,19.14
2022-10-10T14:25:00.107Z,19.14
2022-10-10T14:27:32.076Z,19.11
2022-10-10T14:30:03.546Z,19.06
2022-10-10T14:32:33.074Z,19.03
2022-10-10T14:35:04.652Z,19.06
2022-10-10T14:37:38.458Z,19.15
2022-10-10T14:40:20.739Z,19.14
2022-10-10T14:42:50.452Z,19.07
2022-10-10T14:45:19.913Z,18.96
2022-10-10T14:47:49.602Z,18.91
2022-10-10T14:50:36.109Z,18.80
2022-10-10T14:53:05.962Z,18.75
2022-10-10T14:55:35.394Z,18.60
2022-10-10T14:58:04.940Z,18.49
2022-10-10T15:00:34.997Z,18.46
2022-10-10T15:03:04.832Z,18.37
2022-10-10T15:05:35.668Z,18.27
2022-10-10T15:08:06.426Z,18.20
2022-10-10T15:10:36.494Z,18.11
2022-10-10T15:13:06.038Z,18.01
2022-10-10T15:15:35.576Z,17.93
2022-10-10T15:18:15.430Z,17.87
2022-10-10T15:20:57.002Z,17.78
2022-10-10T15:23:26.967Z,17.71
2022-10-10T15:26:00.209Z,17.66
2022-10-10T15:28:29.590Z,17.60
2022-10-10T15:31:00.087Z,17.55
2022-10-10T15:33:29.833Z,17.49
2022-10-10T15:36:11.487Z,17.43
2022-10-10T15:38:42.490Z,17.35
2022-10-10T15:41:12.210Z,17.31
2022-10-10T15:43:51.813Z,17.22
2022-10-10T15:46:21.845Z,17.16
2022-10-10T15:48:51.565Z,17.09
2022-10-10T15:51:22.622Z,17.01
2022-10-10T15:53:52.470Z,16.95
2022-10-10T15:56:21.864Z,16.86
2022-10-10T15:58:57.570Z,16.78
2022-10-10T16:01:28.858Z,16.68
2022-10-10T16:03:59.182Z,16.58
2022-10-10T16:06:30.083Z,16.48
2022-10-10T16:09:16.787Z,16.39
2022-10-10T16:11:51.403Z,16.30
2022-10-10T16:14:20.794Z,16.24
2022-10-10T16:16:50.245Z,16.17
2022-10-10T16:19:19.826Z,16.09
2022-10-10T16:21:50.614Z,16.02
2022-10-10T16:24:20.067Z,15.96
2022-10-10T16:26:49.549Z,15.90
2022-10-10T16:29:19.118Z,15.85
2022-10-10T16:31:48.690Z,15.80
2022-10-10T16:34:18.767Z,15.72
2022-10-10T16:36:48.220Z,15.67
2022-10-10T16:39:19.077Z,15.62
2022-10-10T16:41:49.564Z,15.55
2022-10-10T16:44:19.421Z,15.51
2022-10-10T16:46:49.112Z,15.44
2022-10-10T16:49:20.671Z,15.39
2022-10-10T16:51:50.218Z,15.34
2022-10-10T16:54:21.066Z,15.30
2022-10-10T16:56:50.561Z,15.26
2022-10-10T16:59:19.979Z,15.21
2022-10-10T17:01:49.391Z,15.19
2022-10-10T17:04:18.774Z,15.16
2022-10-10T17:06:48.139Z,15.10
2022-10-10T17:09:17.513Z,15.07
2022-10-10T17:11:51.351Z,15.02
2022-10-10T17:14:21.233Z,14.94
2022-10-10T17:17:10.934Z,14.86
2022-10-10T17:19:40.166Z,14.75
2022-10-10T17:22:09.952Z,14.65
2022-10-10T17:24:39.425Z,14.54
2022-10-10T17:27:10.180Z,14.44
2022-10-10T17:29:39.644Z,14.33
2022-10-10T17:32:09.166Z,14.23
2022-10-10T17:34:38.814Z,14.13
2022-10-10T17:37:08.170Z,14.03
2022-10-10T17:39:38.235Z,13.93
2022-10-10T17:42:09.006Z,13.84
2022-10-10T17:44:45.217Z,13.77
2022-10-10T17:47:18.395Z,13.68
2022-10-10T17:49:47.791Z,13.62
2022-10-10T17:52:21.057Z,13.54
2022-10-10T17:54:50.838Z,13.48
2022-10-10T17:57:21.693Z,13.41
2022-10-10T17:59:51.098Z,13.32
2022-10-10T18:02:20.787Z,13.23
2022-10-10T18:04:52.104Z,13.14
2022-10-10T18:07:21.569Z,13.04
2022-10-10T18:09:52.645Z,12.95
2022-10-10T18:12:23.538Z,12.87
2022-10-10T18:14:52.986Z,12.78
2022-10-10T18:17:22.417Z,12.70
2022-10-10T18:19:51.911Z,12.61
2022-10-10T18:22:21.380Z,12.54
2022-10-10T18:24:50.791Z,12.45
2022-10-10T18:27:22.030Z,12.38
2022-10-10T18:29:51.406Z,12.30
2022-10-10T18:32:20.871Z,12.22
2022-10-10T18:34:50.325Z,12.12
2022-10-10T18:37:19.781Z,12.08
2022-10-10T18:39:49.207Z,12.00
2022-10-10T18:42:18.670Z,11.92
2022-10-10T18:44:49.506Z,11.85
2022-10-10T18:47:21.476Z,11.78
2022-10-10T18:49:50.876Z,11.72
2022-10-10T18:52:20.421Z,11.64
2022-10-10T18:54:50.585Z,11.59
2022-10-10T18:57:20.117Z,11.50
2022-10-10T18:59:50.911Z,11.46
2022-10-10T19:02:20.324Z,11.40
2022-10-10T19:04:50.862Z,11.35
2022-10-10T19:07:20.266Z,11.31
2022-10-10T19:09:50.365Z,11.26
2022-10-10T19:12:20.098Z,11.18
2022-10-10T19:14:51.638Z,11.17
2022-10-10T19:17:21.039Z,11.14
2022-10-10T19:19:52.532Z,11.12
2022-10-10T19:22:21.964Z,11.10
2022-10-10T19:24:54.293Z,11.06
2022-10-10T19:27:23.749Z,11.03
2022-10-10T19:29:54.883Z,11.05
2022-10-10T19:32:24.352Z,11.03
2022-10-10T19:34:54.517Z,11.00
2022-10-10T19:37:24.962Z,10.92
2022-10-10T19:39:56.935Z,10.88
2022-10-10T19:45:27.278Z,10.74
2022-10-10T19:47:56.718Z,10.68
2022-10-10T19:50:26.174Z,10.64
2022-10-10T19:52:55.577Z,10.59
2022-10-10T19:55:25.218Z,10.54
2022-10-10T19:57:54.754Z,10.50
2022-10-10T20:01:43.847Z,10.44
2022-10-10T20:07:16.115Z,10.35
2022-10-10T20:09:45.839Z,10.32
2022-10-10T20:12:15.846Z,10.28
2022-10-10T20:14:45.269Z,10.28
2022-10-10T20:17:14.747Z,10.28
2022-10-10T20:19:45.929Z,10.26
2022-10-10T20:22:15.740Z,10.23
2022-10-10T20:24:45.175Z,10.17
2022-10-10T20:27:14.655Z,10.13
2022-10-10T20:29:44.224Z,10.08
2022-10-10T20:32:13.667Z,10.03
2022-10-10T20:34:43.110Z,10.00
2022-10-10T20:37:13.957Z,9.94
2022-10-10T20:39:43.518Z,9.87
2022-10-10T20:42:13.033Z,9.81
2022-10-10T20:44:42.682Z,9.78
2022-10-10T20:47:12.123Z,9.76
2022-10-10T20:49:41.766Z,9.82
2022-10-10T20:52:11.217Z,9.90
2022-10-10T20:54:42.357Z,9.97
2022-10-10T20:57:11.857Z,9.98
2022-10-10T20:59:41.456Z,10.03
2022-10-10T21:02:15.862Z,10.06
2022-10-10T21:04:48.053Z,10.05
2022-10-10T21:07:17.529Z,10.02
2022-10-10T21:09:48.411Z,10.00
2022-10-10T21:12:17.887Z,9.96
2022-10-10T21:14:47.462Z,9.93
2022-10-10T21:17:17.074Z,9.94
2022-10-10T21:19:46.548Z,9.93
2022-10-10T21:22:15.999Z,9.93
2022-10-10T21:24:46.905Z,9.86
2022-10-10T21:27:17.012Z,9.83
2022-10-10T21:29:46.506Z,9.79
2022-10-10T21:32:16.011Z,9.75
2022-10-10T21:34:45.458Z,9.68
2022-10-10T21:37:14.989Z,9.74
2022-10-10T21:39:44.430Z,9.74
2022-10-10T21:42:15.304Z,9.81
2022-10-10T21:44:44.824Z,10.05
2022-10-10T21:47:14.251Z,10.32
2022-10-10T21:49:43.951Z,10.58
2022-10-10T21:52:26.257Z,10.83
2022-10-10T21:54:57.706Z,10.88
2022-10-10T21:57:28.466Z,10.91
2022-10-10T21:59:57.907Z,10.98
2022-10-10T22:02:27.578Z,10.98
2022-10-10T22:04:58.936Z,11.03
2022-10-10T22:07:28.678Z,11.07
2022-10-10T22:09:58.419Z,11.07
2022-10-10T22:12:29.340Z,11.07
2022-10-10T22:14:58.928Z,11.06
2022-10-10T22:17:28.861Z,11.03
2022-10-10T22:19:58.296Z,11.01
2022-10-10T22:22:28.277Z,11.01
2022-10-10T22:24:59.514Z,11.00
2022-10-10T22:27:40.571Z,10.98
2022-10-10T22:30:13.845Z,10.96
2022-10-10T22:32:43.414Z,10.96
2022-10-10T22:35:14.198Z,10.94
2022-10-10T22:37:43.575Z,11.00
2022-10-10T22:40:13.885Z,11.09
2022-10-10T22:42:44.657Z,11.13
2022-10-10T22:45:14.066Z,11.12
2022-10-10T22:47:43.570Z,11.10
2022-10-10T22:50:13.397Z,11.06
2022-10-10T22:52:43.824Z,11.09
2022-10-10T22:55:17.978Z,11.09
2022-10-10T22:57:49.361Z,11.10
2022-10-10T23:00:19.442Z,11.15
2022-10-10T23:02:48.826Z,11.19
2022-10-10T23:05:18.493Z,11.22
2022-10-10T23:07:47.833Z,11.30
2022-10-10T23:10:17.460Z,11.33
2022-10-10T23:12:48.236Z,11.34
2022-10-10T23:15:17.876Z,11.34
2022-10-10T23:17:47.292Z,11.35
2022-10-10T23:20:16.881Z,11.36
2022-10-10T23:22:46.271Z,11.44
2022-10-10T23:25:15.797Z,11.45
2022-10-10T23:27:45.217Z,11.60
2022-10-10T23:30:16.483Z,11.61
2022-10-10T23:32:45.906Z,11.65
2022-10-10T23:35:15.257Z,11.67
2022-10-10T23:37:44.758Z,11.64
2022-10-10T23:40:14.176Z,11.63
2022-10-10T23:42:43.550Z,11.60
2022-10-10T23:45:12.921Z,11.56
2022-10-10T23:47:43.653Z,11.61
2022-10-10T23:50:13.753Z,11.58
2022-10-10T23:52:43.273Z,11.51
2022-10-10T23:55:12.683Z,11.49
2022-10-10T23:57:42.064Z,11.46
